PTAO2: Poteau River, Poteau, OK

                                SHEF ID:       PTAO2     Poteau River at Poteau, OK
STATION TYPE:
Regulating: Stage = 20.00, Flow = 7395

PRECIP STAGE RIV-FLOW VOLTAGE BAT-LOAD
in ft cfs volt volt
Ccp-Rev Ccp-Rev Ccp-Rev Ccp-Rev Ccp-Rev
(America/Chicago)
07/26 00:00 0.00 4.08 784 12.82 12.17
07/26 01:00 0.00 3.81 684 12.81 12.20
07/26 02:00 0.00 3.57 598 12.80 12.17
07/26 03:00 0.00 3.38 533 12.80 12.17
07/26 04:00 0.00 3.24 460 12.79 12.17
07/26 05:00 0.00 3.15 411 12.79 12.17
07/26 06:00 0.00 3.08 374 12.80 12.13
07/26 07:00 0.00 3.03 350 12.83 12.16
07/26 08:00 0.00 3.00 335 13.19 12.44
07/26 09:00 0.00 2.97 322 13.72 12.77
07/26 10:00 0.00 2.95 315 13.68 12.76
07/26 11:00 0.00 2.93 308 13.61 12.73
07/26 12:00 0.00 2.92 304 13.13 12.50
07/26 13:00 0.00 2.91 301 13.03 12.40
07/26 14:00 0.00 2.90 297 13.01 12.37
07/26 15:00 0.00 2.90 297 12.97 12.31
07/26 16:00 0.17 2.93 308 13.24 12.46
07/26 17:00 0.00 2.91 301 13.06 12.44
07/26 18:00 0.00 2.91 301 12.96 12.30
07/26 19:00 0.00 2.90 297 13.03 12.30
07/26 20:00 0.00 2.90 297 13.04 12.38
07/26 21:00 0.00 2.90 297 12.91 12.27
07/26 22:00 0.00 2.91 301 12.90 12.26
07/26 23:00 0.00 2.91 301 12.89 12.27
Data processed at Sun 27Jul2025 04:48 GMT

Parsing this webpage?

Checkout our new Data API! CWMSDataAPI (CDA)

Timeseries IDs (TSIDs)

TSIDs used from left to right in the data table
POTE.Precip-Inc.Total.1Hour.1Hour.Ccp-Rev
POTE.Stage.Inst.1Hour.0.Ccp-Rev
POTE.Flow.Inst.1Hour.0.Ccp-Rev
POTE.Volt-Battery.Inst.1Hour.0.Ccp-Rev
POTE.Volt-Battery Load.Inst.1Hour.0.Ccp-Rev

                            

All information presented herein is the property of the government of the United States of America and may be revised or deleted at any time without prior notice. Dissemination of this information without the expressed written consent of the Public Affairs Office, Tulsa District U.S. Army Corps of Engineers is strictly prohibited. These data are gathered electronically and, as presented, have NOT undergone any form of quality control. These data are NOT guaranteed to be valid or correct.